createdAt,value
2022-07-30T00:00:11.744Z,22.72
2022-07-30T00:02:38.400Z,22.73
2022-07-30T00:05:05.319Z,22.74
2022-07-30T00:07:31.961Z,22.76
2022-07-30T00:09:58.490Z,22.74
2022-07-30T00:12:25.182Z,22.76
2022-07-30T00:14:52.354Z,22.72
2022-07-30T00:17:18.940Z,22.79
2022-07-30T00:19:47.195Z,22.87
2022-07-30T00:22:13.888Z,22.78
2022-07-30T00:24:40.728Z,22.75
2022-07-30T00:27:07.371Z,22.76
2022-07-30T00:29:33.914Z,22.73
2022-07-30T00:32:00.441Z,22.73
2022-07-30T00:34:27.874Z,22.71
2022-07-30T00:36:54.468Z,22.74
2022-07-30T00:39:23.352Z,22.71
2022-07-30T00:42:08.337Z,22.71
2022-07-30T00:44:34.913Z,22.75
2022-07-30T00:47:02.028Z,22.75
2022-07-30T00:49:28.830Z,22.69
2022-07-30T00:51:55.989Z,22.66
2022-07-30T00:54:22.796Z,22.63
2022-07-30T00:56:49.701Z,22.50
2022-07-30T00:59:16.617Z,22.55
2022-07-30T01:01:43.356Z,22.54
2022-07-30T01:04:11.788Z,22.46
2022-07-30T01:06:40.290Z,22.57
2022-07-30T01:09:07.665Z,22.65
2022-07-30T01:11:39.409Z,22.54
2022-07-30T01:14:07.877Z,22.48
2022-07-30T01:16:35.950Z,22.47
2022-07-30T01:19:28.917Z,22.47
2022-07-30T01:22:06.812Z,22.57
2022-07-30T01:25:08.783Z,22.59
2022-07-30T01:27:40.785Z,22.47
2022-07-30T01:30:08.616Z,22.55
2022-07-30T01:32:38.869Z,22.42
2022-07-30T01:35:07.721Z,22.34
2022-07-30T01:37:35.899Z,22.36
2022-07-30T01:40:03.688Z,22.36
2022-07-30T01:42:32.686Z,22.38
2022-07-30T01:45:01.350Z,22.32
2022-07-30T01:47:29.358Z,22.20
2022-07-30T01:49:57.931Z,22.22
2022-07-30T01:52:26.896Z,22.24
2022-07-30T01:54:56.497Z,22.25
2022-07-30T01:57:23.412Z,22.25
2022-07-30T01:59:52.694Z,22.25
2022-07-30T02:02:19.632Z,22.23
2022-07-30T02:04:46.968Z,22.27
2022-07-30T02:07:49.699Z,22.23
2022-07-30T02:10:23.918Z,22.19
2022-07-30T02:12:54.416Z,22.11
2022-07-30T02:15:37.494Z,22.15
2022-07-30T02:18:13.506Z,22.09
2022-07-30T02:20:45.558Z,22.11
2022-07-30T02:23:18.391Z,22.09
2022-07-30T02:25:52.557Z,22.20
2022-07-30T02:28:22.413Z,22.12
2022-07-30T02:31:00.078Z,22.10
2022-07-30T02:33:30.872Z,22.03
2022-07-30T02:35:59.234Z,22.10
2022-07-30T02:38:28.900Z,22.16
2022-07-30T02:41:02.523Z,22.18
2022-07-30T02:43:30.278Z,22.08
2022-07-30T02:46:04.485Z,21.99
2022-07-30T02:48:35.429Z,22.04
2022-07-30T02:51:04.313Z,21.95
2022-07-30T02:53:31.382Z,22.04
2022-07-30T02:56:00.414Z,21.91
2022-07-30T02:58:28.593Z,21.98
2022-07-30T03:00:57.166Z,22.01
2022-07-30T03:03:29.194Z,22.03
2022-07-30T03:05:57.029Z,21.94
2022-07-30T03:08:25.255Z,22.03
2022-07-30T03:10:55.387Z,22.03
2022-07-30T03:13:23.863Z,21.96
2022-07-30T03:15:53.867Z,21.95
2022-07-30T03:18:21.571Z,22.04
2022-07-30T03:20:53.563Z,21.97
2022-07-30T03:23:22.282Z,21.82
2022-07-30T03:25:58.024Z,21.82
2022-07-30T03:28:25.777Z,21.86
2022-07-30T03:30:53.678Z,21.90
2022-07-30T03:33:22.147Z,21.86
2022-07-30T03:35:49.773Z,21.78
2022-07-30T03:38:18.082Z,21.81
2022-07-30T03:40:46.094Z,21.72
2022-07-30T03:43:18.330Z,21.63
2022-07-30T03:46:02.834Z,21.65
2022-07-30T03:48:30.398Z,21.67
2022-07-30T03:50:58.618Z,21.75
2022-07-30T03:53:25.874Z,21.63
2022-07-30T03:55:53.595Z,21.51
2022-07-30T03:58:21.557Z,21.64
2022-07-30T04:00:50.611Z,21.66
2022-07-30T04:03:31.769Z,21.60
2022-07-30T04:05:59.547Z,21.58
2022-07-30T04:08:27.931Z,21.45
2022-07-30T04:10:55.309Z,21.44
2022-07-30T04:13:22.287Z,21.49
2022-07-30T04:16:39.406Z,21.43
2022-07-30T04:18:58.307Z,21.47
2022-07-30T04:21:27.018Z,21.38
2022-07-30T04:24:02.141Z,21.33
2022-07-30T04:26:33.373Z,21.15
2022-07-30T04:29:01.460Z,21.15
2022-07-30T04:31:29.741Z,21.18
2022-07-30T04:33:58.890Z,21.25
2022-07-30T04:36:32.704Z,21.06
2022-07-30T04:39:00.148Z,20.88
2022-07-30T04:41:26.802Z,20.99
2022-07-30T04:43:53.436Z,21.06
2022-07-30T04:46:20.068Z,21.00
2022-07-30T04:48:51.257Z,21.03
2022-07-30T04:51:26.957Z,21.08
2022-07-30T04:53:55.610Z,20.95
2022-07-30T04:56:25.895Z,21.00
2022-07-30T04:58:54.896Z,21.04
2022-07-30T05:01:39.353Z,21.02
2022-07-30T05:04:09.013Z,20.94
2022-07-30T05:06:36.948Z,21.08
2022-07-30T05:09:04.825Z,21.04
2022-07-30T05:11:31.452Z,20.98
2022-07-30T05:13:58.002Z,20.86
2022-07-30T05:16:24.985Z,20.92
2022-07-30T05:18:51.905Z,20.91
2022-07-30T05:21:18.628Z,20.99
2022-07-30T05:23:50.524Z,20.95
2022-07-30T05:26:21.698Z,21.11
2022-07-30T05:28:53.558Z,20.98
2022-07-30T05:31:22.538Z,20.90
2022-07-30T05:33:49.175Z,20.96
2022-07-30T05:36:15.813Z,20.96
2022-07-30T05:38:43.042Z,20.88
2022-07-30T05:41:25.162Z,20.91
2022-07-30T05:43:56.917Z,20.88
2022-07-30T05:46:24.236Z,21.11
2022-07-30T05:48:51.697Z,20.90
2022-07-30T05:51:20.707Z,21.11
2022-07-30T05:53:47.438Z,21.14
2022-07-30T05:56:14.819Z,21.10
2022-07-30T05:58:41.385Z,21.01
2022-07-30T06:01:07.955Z,21.09
2022-07-30T06:03:35.012Z,21.21
2022-07-30T06:06:04.360Z,21.31
2022-07-30T06:08:33.844Z,21.09
2022-07-30T06:11:00.437Z,21.16
2022-07-30T06:13:27.088Z,21.63
2022-07-30T06:15:53.799Z,21.25
2022-07-30T06:18:23.180Z,21.21
2022-07-30T06:20:54.393Z,21.08
2022-07-30T06:23:22.130Z,21.15
2022-07-30T06:25:50.013Z,21.00
2022-07-30T06:28:37.100Z,21.20
2022-07-30T06:31:05.414Z,21.18
2022-07-30T06:33:32.027Z,21.34
2022-07-30T06:35:58.627Z,21.33
2022-07-30T06:38:25.168Z,21.37
2022-07-30T06:40:51.825Z,21.72
2022-07-30T06:43:19.591Z,21.68
2022-07-30T06:45:46.267Z,21.68
2022-07-30T06:48:13.181Z,21.52
2022-07-30T06:50:41.432Z,21.53
2022-07-30T06:53:08.043Z,21.55
2022-07-30T06:55:34.599Z,21.24
2022-07-30T06:58:01.136Z,21.55
2022-07-30T07:00:27.751Z,21.70
2022-07-30T07:02:54.416Z,21.66
2022-07-30T07:05:23.046Z,22.06
2022-07-30T07:07:58.602Z,22.05
2022-07-30T07:10:26.275Z,22.14
2022-07-30T07:12:53.545Z,22.22
2022-07-30T07:15:22.458Z,22.08
2022-07-30T07:18:03.519Z,22.06
2022-07-30T07:20:30.120Z,22.18
2022-07-30T07:22:56.629Z,22.14
2022-07-30T07:25:24.728Z,21.87
2022-07-30T07:28:11.826Z,22.10
2022-07-30T07:30:38.263Z,22.15
2022-07-30T07:33:05.069Z,22.28
2022-07-30T07:35:31.799Z,22.53
2022-07-30T07:38:07.671Z,22.19
2022-07-30T07:40:34.301Z,22.33
2022-07-30T07:43:00.883Z,22.29
2022-07-30T07:45:27.427Z,22.45
2022-07-30T07:47:53.957Z,22.57
2022-07-30T07:50:21.031Z,22.68
2022-07-30T07:52:47.597Z,22.35
2022-07-30T07:55:14.676Z,22.28
2022-07-30T07:57:42.910Z,22.12
2022-07-30T08:00:12.144Z,22.49
2022-07-30T08:02:38.765Z,22.64
2022-07-30T08:05:06.412Z,22.59
2022-07-30T08:07:33.259Z,22.51
2022-07-30T08:10:00.266Z,22.63
2022-07-30T08:12:27.587Z,22.87
2022-07-30T08:14:54.324Z,22.93
2022-07-30T08:17:21.560Z,22.82
2022-07-30T08:19:48.624Z,22.59
2022-07-30T08:22:15.251Z,22.79
2022-07-30T08:24:41.850Z,23.09
2022-07-30T08:27:08.426Z,22.83
2022-07-30T08:29:35.315Z,22.95
2022-07-30T08:32:02.709Z,22.95
2022-07-30T08:34:29.665Z,23.03
2022-07-30T08:36:56.406Z,22.99
2022-07-30T08:39:24.167Z,23.05
2022-07-30T08:41:51.064Z,22.99
2022-07-30T08:44:18.795Z,23.03
2022-07-30T08:46:47.847Z,22.89
2022-07-30T08:49:15.028Z,23.06
2022-07-30T08:51:42.714Z,22.99
2022-07-30T08:54:09.441Z,22.98
2022-07-30T08:56:36.102Z,23.11
2022-07-30T08:59:03.533Z,23.17
2022-07-30T09:01:30.056Z,23.30
2022-07-30T09:03:56.662Z,23.26
2022-07-30T09:06:23.897Z,23.41
2022-07-30T09:08:50.476Z,23.49
2022-07-30T09:11:17.039Z,23.51
2022-07-30T09:13:44.622Z,23.64
2022-07-30T09:16:26.181Z,23.70
2022-07-30T09:18:54.613Z,23.71
2022-07-30T09:21:29.361Z,23.72
2022-07-30T09:24:03.943Z,23.80
2022-07-30T09:26:32.976Z,23.66
2022-07-30T09:29:21.594Z,23.71
2022-07-30T09:32:06.131Z,23.95
2022-07-30T09:34:40.102Z,24.05
2022-07-30T09:37:09.653Z,24.02
2022-07-30T09:39:40.367Z,24.17
2022-07-30T09:42:28.062Z,24.25
2022-07-30T09:45:08.316Z,24.19
2022-07-30T09:47:37.506Z,24.26
2022-07-30T09:50:29.527Z,24.18
2022-07-30T09:53:08.940Z,24.42
2022-07-30T09:55:41.077Z,24.47
2022-07-30T09:58:08.630Z,24.51
2022-07-30T10:00:37.518Z,24.65
2022-07-30T10:03:42.422Z,24.71
2022-07-30T10:06:11.614Z,24.70
2022-07-30T10:08:51.982Z,24.87
2022-07-30T10:11:23.787Z,24.61
2022-07-30T10:13:56.445Z,24.59
2022-07-30T10:16:28.137Z,24.80
2022-07-30T10:18:57.811Z,24.73
2022-07-30T10:21:25.775Z,24.80
2022-07-30T10:23:53.812Z,24.81
2022-07-30T10:26:21.415Z,24.92
2022-07-30T10:28:49.426Z,25.09
2022-07-30T10:31:46.961Z,24.95
2022-07-30T10:34:03.339Z,24.97
2022-07-30T10:36:31.161Z,25.03
2022-07-30T10:39:00.371Z,25.02
2022-07-30T10:41:48.176Z,25.15
2022-07-30T10:44:40.968Z,25.12
2022-07-30T10:47:11.000Z,25.26
2022-07-30T10:49:40.912Z,25.46
2022-07-30T10:52:08.973Z,25.50
2022-07-30T10:54:36.654Z,25.56
2022-07-30T10:57:32.226Z,25.55
2022-07-30T11:00:09.564Z,25.45
2022-07-30T11:02:36.731Z,25.60
2022-07-30T11:05:27.160Z,25.72
2022-07-30T11:08:42.690Z,25.71
2022-07-30T11:12:00.018Z,25.89
2022-07-30T11:14:08.498Z,25.71
2022-07-30T11:16:35.005Z,25.89
2022-07-30T11:19:53.290Z,25.80
2022-07-30T11:22:26.027Z,25.77
2022-07-30T11:24:53.430Z,26.03
2022-07-30T11:27:38.904Z,26.31
2022-07-30T11:30:17.931Z,26.25
2022-07-30T11:32:48.433Z,26.08
2022-07-30T11:35:34.356Z,26.25
2022-07-30T11:38:15.694Z,26.02
2022-07-30T11:40:45.641Z,26.43
2022-07-30T11:43:35.287Z,26.57
2022-07-30T11:46:16.323Z,26.67
2022-07-30T11:48:59.122Z,26.62
2022-07-30T11:51:26.695Z,26.88
2022-07-30T11:54:19.867Z,26.64
2022-07-30T11:56:53.876Z,26.36
2022-07-30T11:59:20.520Z,26.38
2022-07-30T12:01:53.913Z,26.39
2022-07-30T12:04:20.682Z,26.58
2022-07-30T12:06:48.752Z,26.54
2022-07-30T12:09:29.021Z,26.55
2022-07-30T12:11:57.300Z,26.52
2022-07-30T12:14:24.193Z,26.53
2022-07-30T12:16:53.199Z,26.54
2022-07-30T12:19:20.033Z,26.70
2022-07-30T12:21:50.917Z,26.90
2022-07-30T12:24:25.569Z,26.87
2022-07-30T12:26:55.356Z,26.92
2022-07-30T12:29:25.105Z,27.19
2022-07-30T12:31:53.415Z,27.57
2022-07-30T12:34:25.607Z,27.18
2022-07-30T12:36:53.977Z,27.43
2022-07-30T12:39:25.124Z,27.44
2022-07-30T12:41:56.121Z,27.60
2022-07-30T12:44:39.175Z,27.61
2022-07-30T12:47:19.265Z,27.93
2022-07-30T12:49:49.571Z,27.75
2022-07-30T12:52:36.167Z,27.67
2022-07-30T12:55:04.709Z,27.53
2022-07-30T12:57:53.172Z,27.74
2022-07-30T13:00:20.316Z,27.46
2022-07-30T13:02:47.493Z,27.39
2022-07-30T13:05:14.324Z,27.44
2022-07-30T13:07:58.934Z,27.24
2022-07-30T13:10:30.890Z,27.46
2022-07-30T13:12:59.024Z,27.50
2022-07-30T13:15:26.414Z,27.65
2022-07-30T13:17:53.328Z,27.78
2022-07-30T13:20:21.182Z,27.61
2022-07-30T13:22:48.055Z,27.29
2022-07-30T13:25:14.768Z,27.52
2022-07-30T13:27:41.404Z,27.78
2022-07-30T13:30:09.476Z,27.96
2022-07-30T13:32:36.203Z,27.75
2022-07-30T13:35:03.254Z,28.03
2022-07-30T13:37:37.624Z,27.77
2022-07-30T13:40:06.084Z,27.92
2022-07-30T13:42:32.772Z,27.76
2022-07-30T13:44:59.280Z,27.90
2022-07-30T13:47:25.846Z,27.84
2022-07-30T13:49:55.567Z,27.95
2022-07-30T13:52:22.369Z,27.97
2022-07-30T13:54:53.339Z,28.04
2022-07-30T13:57:20.283Z,28.13
2022-07-30T13:59:46.953Z,28.29
2022-07-30T14:02:13.614Z,28.20
2022-07-30T14:04:41.036Z,28.27
2022-07-30T14:07:07.564Z,28.06
2022-07-30T14:09:34.172Z,28.18
2022-07-30T14:12:11.594Z,28.14
2022-07-30T14:14:38.428Z,28.01
2022-07-30T14:17:05.201Z,28.04
2022-07-30T14:19:31.903Z,28.26
2022-07-30T14:22:01.626Z,28.29
2022-07-30T14:24:28.198Z,28.06
2022-07-30T14:26:58.641Z,28.39
2022-07-30T14:29:26.657Z,28.42
2022-07-30T14:31:53.679Z,28.41
2022-07-30T14:34:20.467Z,28.40
2022-07-30T14:36:46.994Z,28.53
2022-07-30T14:39:13.605Z,28.61
2022-07-30T14:41:40.638Z,28.63
2022-07-30T14:44:12.886Z,28.48
2022-07-30T14:46:51.814Z,28.58
2022-07-30T14:49:20.080Z,28.62
2022-07-30T14:51:46.993Z,28.47
2022-07-30T14:54:13.823Z,28.52
2022-07-30T14:56:40.599Z,28.73
2022-07-30T14:59:07.217Z,28.75
2022-07-30T15:01:33.834Z,28.79
2022-07-30T15:04:00.487Z,28.68
2022-07-30T15:06:27.591Z,28.99
2022-07-30T15:08:54.300Z,28.90
2022-07-30T15:11:22.027Z,29.08
2022-07-30T15:13:50.353Z,29.46
2022-07-30T15:16:18.109Z,29.54
2022-07-30T15:18:44.934Z,29.67
2022-07-30T15:21:12.466Z,29.73
2022-07-30T15:23:39.023Z,30.28
2022-07-30T15:26:05.595Z,29.86
2022-07-30T15:28:32.335Z,29.23
2022-07-30T15:30:59.036Z,29.92
2022-07-30T15:33:25.840Z,30.33
2022-07-30T15:35:53.111Z,30.02
2022-07-30T15:38:19.762Z,30.05
2022-07-30T15:40:46.420Z,30.25
2022-07-30T15:43:12.937Z,29.89
2022-07-30T15:45:55.370Z,30.71
2022-07-30T15:48:27.061Z,30.74
2022-07-30T15:51:01.632Z,30.73
2022-07-30T15:53:29.887Z,30.43
2022-07-30T15:55:57.445Z,29.77
2022-07-30T15:58:23.999Z,29.66
2022-07-30T16:00:50.731Z,30.00
2022-07-30T16:03:17.277Z,29.58
2022-07-30T16:05:52.510Z,29.01
2022-07-30T16:08:20.524Z,28.90
2022-07-30T16:10:48.522Z,29.49
2022-07-30T16:13:16.490Z,29.55
2022-07-30T16:15:43.167Z,30.23
2022-07-30T16:18:10.417Z,29.99
2022-07-30T16:20:37.054Z,30.45
2022-07-30T16:23:03.746Z,30.53
2022-07-30T16:25:30.362Z,30.44
2022-07-30T16:27:57.728Z,30.44
2022-07-30T16:30:27.559Z,30.59
2022-07-30T16:32:56.274Z,30.48
2022-07-30T16:35:23.453Z,30.73
2022-07-30T16:37:50.220Z,30.58
2022-07-30T16:40:16.763Z,29.93
2022-07-30T16:42:43.398Z,30.62
2022-07-30T16:45:10.370Z,31.14
2022-07-30T16:47:38.057Z,30.98
2022-07-30T16:50:05.042Z,30.79
2022-07-30T16:52:31.625Z,30.33
2022-07-30T16:54:58.172Z,30.27
2022-07-30T16:57:24.746Z,30.81
2022-07-30T16:59:51.489Z,30.51
2022-07-30T17:02:18.129Z,30.74
2022-07-30T17:04:44.938Z,31.13
2022-07-30T17:07:11.479Z,30.88
2022-07-30T17:09:38.024Z,31.04
2022-07-30T17:12:12.097Z,30.80
2022-07-30T17:14:40.814Z,30.90
2022-07-30T17:17:13.482Z,30.54
2022-07-30T17:19:40.840Z,30.36
2022-07-30T17:22:07.496Z,30.75
2022-07-30T17:24:34.048Z,31.24
2022-07-30T17:27:00.767Z,31.13
2022-07-30T17:29:27.417Z,30.58
2022-07-30T17:31:59.108Z,29.93
2022-07-30T17:34:25.759Z,30.52
2022-07-30T17:36:53.423Z,30.73
2022-07-30T17:40:19.292Z,30.88
2022-07-30T17:42:11.871Z,30.99
2022-07-30T17:44:41.113Z,31.29
2022-07-30T17:47:14.626Z,31.25
2022-07-30T17:49:43.010Z,30.81
2022-07-30T17:52:09.589Z,31.09
2022-07-30T17:54:36.121Z,31.19
2022-07-30T17:57:02.776Z,30.55
2022-07-30T17:59:29.343Z,30.64
2022-07-30T18:01:56.086Z,30.43
2022-07-30T18:04:25.735Z,30.33
2022-07-30T18:06:55.410Z,30.16
2022-07-30T18:09:22.047Z,30.70
2022-07-30T18:11:49.122Z,30.38
2022-07-30T18:14:16.138Z,30.89
2022-07-30T18:16:42.755Z,31.52
2022-07-30T18:19:09.366Z,30.30
2022-07-30T18:21:53.836Z,30.20
2022-07-30T18:24:21.275Z,30.16
2022-07-30T18:26:52.461Z,29.93
2022-07-30T18:29:19.149Z,30.40
2022-07-30T18:31:47.581Z,29.96
2022-07-30T18:34:14.442Z,29.67
2022-07-30T18:36:42.375Z,29.64
2022-07-30T18:39:09.092Z,29.26
2022-07-30T18:41:35.675Z,29.06
2022-07-30T18:44:02.419Z,28.96
2022-07-30T18:46:29.066Z,28.95
2022-07-30T18:48:57.029Z,29.22
2022-07-30T18:51:25.735Z,29.13
2022-07-30T18:53:53.679Z,29.04
2022-07-30T18:56:20.848Z,28.98
2022-07-30T18:58:47.615Z,28.81
2022-07-30T19:01:14.331Z,28.74
2022-07-30T19:03:41.070Z,28.63
2022-07-30T19:06:07.709Z,28.52
2022-07-30T19:08:34.318Z,28.37
2022-07-30T19:11:01.102Z,28.43
2022-07-30T19:13:28.415Z,28.42
2022-07-30T19:15:56.967Z,28.25
2022-07-30T19:18:23.759Z,28.09
2022-07-30T19:20:51.833Z,28.13
2022-07-30T19:23:18.747Z,27.94
2022-07-30T19:25:45.732Z,27.91
2022-07-30T19:28:13.907Z,27.88
2022-07-30T19:30:40.536Z,27.86
2022-07-30T19:33:14.695Z,27.84
2022-07-30T19:35:42.518Z,27.80
2022-07-30T19:38:09.794Z,27.67
2022-07-30T19:40:39.434Z,27.79
2022-07-30T19:43:06.664Z,27.67
2022-07-30T19:45:47.644Z,27.58
2022-07-30T19:48:29.513Z,27.60
2022-07-30T19:51:00.601Z,27.60
2022-07-30T19:53:31.251Z,27.48
2022-07-30T19:56:10.479Z,27.45
2022-07-30T19:58:37.766Z,27.39
2022-07-30T20:01:08.436Z,27.50
2022-07-30T20:03:35.976Z,27.37
2022-07-30T20:06:03.867Z,27.30
2022-07-30T20:08:34.778Z,27.24
2022-07-30T20:11:02.267Z,27.26
2022-07-30T20:13:44.073Z,27.27
2022-07-30T20:16:13.145Z,27.21
2022-07-30T20:18:40.080Z,27.10
2022-07-30T20:21:12.548Z,27.10
2022-07-30T20:23:41.289Z,27.11
2022-07-30T20:26:12.530Z,27.06
2022-07-30T20:28:43.245Z,26.94
2022-07-30T20:31:11.708Z,26.93
2022-07-30T20:33:40.074Z,26.82
2022-07-30T20:36:09.830Z,26.83
2022-07-30T20:38:38.982Z,26.75
2022-07-30T20:41:10.001Z,26.73
2022-07-30T20:43:51.481Z,26.77
2022-07-30T20:46:23.238Z,26.70
2022-07-30T20:48:51.755Z,26.64
2022-07-30T20:51:18.536Z,26.60
2022-07-30T20:53:45.779Z,26.65
2022-07-30T20:59:00.064Z,26.55
2022-07-30T21:01:28.613Z,26.64
2022-07-30T21:03:57.428Z,26.67
2022-07-30T21:06:24.093Z,26.45
2022-07-30T21:08:56.778Z,26.43
2022-07-30T21:11:23.378Z,26.38
2022-07-30T21:13:50.337Z,26.32
2022-07-30T21:16:18.518Z,26.44
2022-07-30T21:18:50.000Z,26.36
2022-07-30T21:21:29.269Z,26.30
2022-07-30T21:24:11.602Z,26.30
2022-07-30T21:26:42.439Z,26.25
2022-07-30T21:29:09.516Z,26.19
2022-07-30T21:32:11.428Z,26.20
2022-07-30T21:34:26.960Z,26.30
2022-07-30T21:36:55.705Z,26.25
2022-07-30T21:39:28.916Z,26.18
2022-07-30T21:41:56.190Z,26.09
2022-07-30T21:44:25.809Z,26.12
2022-07-30T21:46:53.722Z,26.07
2022-07-30T21:49:22.661Z,25.96
2022-07-30T21:51:49.314Z,26.07
2022-07-30T21:54:19.337Z,26.13
2022-07-30T21:56:56.463Z,25.98
2022-07-30T21:59:25.266Z,25.93
2022-07-30T22:01:55.160Z,25.88
2022-07-30T22:04:22.118Z,25.80
2022-07-30T22:06:48.839Z,25.87
2022-07-30T22:09:19.723Z,25.91
2022-07-30T22:12:01.154Z,25.78
2022-07-30T22:14:29.160Z,25.93
2022-07-30T22:16:56.534Z,25.87
2022-07-30T22:19:23.553Z,25.94
2022-07-30T22:21:52.445Z,25.82
2022-07-30T22:24:29.369Z,25.54
2022-07-30T22:26:57.039Z,25.57
2022-07-30T22:29:26.879Z,25.59
2022-07-30T22:32:00.720Z,25.77
2022-07-30T22:34:27.443Z,25.83
2022-07-30T22:36:53.958Z,25.70
2022-07-30T22:39:24.297Z,25.71
2022-07-30T22:42:00.812Z,25.66
2022-07-30T22:44:28.056Z,25.50
2022-07-30T22:46:56.334Z,25.45
2022-07-30T22:49:52.107Z,25.41
2022-07-30T22:52:24.222Z,25.51
2022-07-30T22:54:54.157Z,25.28
2022-07-30T22:57:22.993Z,25.07
2022-07-30T22:59:57.953Z,24.99
2022-07-30T23:02:25.731Z,25.01
2022-07-30T23:04:54.807Z,25.27
2022-07-30T23:07:23.616Z,25.19
2022-07-30T23:10:17.270Z,25.14
2022-07-30T23:12:33.051Z,26.56
2022-07-30T23:12:48.051Z,24.96
2022-07-30T23:15:14.991Z,24.98
2022-07-30T23:17:41.780Z,25.01
2022-07-30T23:20:11.311Z,24.99
2022-07-30T23:22:38.510Z,25.06
2022-07-30T23:25:07.266Z,25.10
2022-07-30T23:27:33.960Z,25.10
2022-07-30T23:30:00.554Z,25.10
2022-07-30T23:32:27.092Z,25.07
2022-07-30T23:34:53.742Z,24.95
2022-07-30T23:37:20.666Z,24.90
2022-07-30T23:39:47.254Z,24.91
2022-07-30T23:42:13.811Z,24.83
2022-07-30T23:44:41.184Z,24.81
2022-07-30T23:47:07.795Z,24.67
2022-07-30T23:49:34.432Z,24.60
2022-07-30T23:52:01.050Z,24.54
2022-07-30T23:54:28.884Z,24.50
2022-07-30T23:56:58.545Z,24.45
2022-07-30T23:59:40.688Z,24.40
